createdAt,value
2022-12-31T00:01:26.494Z,1.10
2022-12-31T00:03:53.897Z,1.00
2022-12-31T00:06:35.089Z,2.03
2022-12-31T00:09:03.842Z,1.73
2022-12-31T00:11:31.699Z,1.80
2022-12-31T00:13:59.428Z,2.13
2022-12-31T00:16:33.752Z,2.60
2022-12-31T00:19:01.124Z,2.50
2022-12-31T00:21:29.501Z,4.03
2022-12-31T00:23:56.766Z,4.43
2022-12-31T00:26:26.423Z,2.57
2022-12-31T00:28:54.233Z,1.80
2022-12-31T00:31:22.765Z,1.03
2022-12-31T00:33:50.249Z,1.20
2022-12-31T00:36:19.602Z,1.33
2022-12-31T00:38:47.435Z,1.17
2022-12-31T00:41:15.620Z,1.33
2022-12-31T00:43:42.995Z,0.93
2022-12-31T00:46:10.711Z,3.27
2022-12-31T00:48:38.119Z,4.63
2022-12-31T00:51:06.628Z,4.20
2022-12-31T00:53:34.387Z,2.67
2022-12-31T00:56:02.049Z,1.30
2022-12-31T00:58:29.305Z,1.20
2022-12-31T01:00:56.856Z,1.40
2022-12-31T01:03:24.305Z,1.03
2022-12-31T01:05:51.587Z,0.80
2022-12-31T01:08:18.772Z,1.00
2022-12-31T01:11:08.444Z,0.70
2022-12-31T01:13:35.626Z,0.93
2022-12-31T01:16:09.803Z,1.97
2022-12-31T01:18:37.339Z,3.87
2022-12-31T01:21:05.648Z,0.93
2022-12-31T01:23:33.186Z,4.23
2022-12-31T01:26:01.605Z,1.90
2022-12-31T01:28:28.890Z,1.27
2022-12-31T01:30:56.646Z,1.23
2022-12-31T01:33:23.927Z,0.50
2022-12-31T01:35:51.222Z,0.50
2022-12-31T01:38:18.491Z,0.93
2022-12-31T01:40:45.725Z,2.57
2022-12-31T01:43:17.558Z,0.60
2022-12-31T01:45:46.548Z,3.03
2022-12-31T01:48:15.653Z,0.53
2022-12-31T01:50:43.202Z,0.40
2022-12-31T01:53:11.507Z,1.20
2022-12-31T01:55:40.480Z,0.90
2022-12-31T01:58:11.967Z,1.23
2022-12-31T02:00:39.237Z,0.50
2022-12-31T02:03:07.538Z,0.70
2022-12-31T02:05:43.871Z,2.70
2022-12-31T02:08:11.566Z,0.70
2022-12-31T02:10:38.858Z,1.07
2022-12-31T02:13:06.147Z,1.00
2022-12-31T02:15:48.752Z,2.88
2022-12-31T02:18:24.908Z,1.13
2022-12-31T02:21:03.298Z,2.83
2022-12-31T02:23:42.378Z,4.80
2022-12-31T02:26:19.131Z,3.85
2022-12-31T02:29:05.089Z,2.80
2022-12-31T02:31:48.352Z,3.17
2022-12-31T02:34:18.540Z,4.68
2022-12-31T02:36:48.039Z,1.67
2022-12-31T02:39:15.475Z,4.43
2022-12-31T02:41:51.681Z,2.17
2022-12-31T02:44:25.582Z,1.65
2022-12-31T02:46:55.812Z,1.80
2022-12-31T02:49:45.882Z,3.28
2022-12-31T02:52:43.910Z,1.42
2022-12-31T02:55:18.477Z,2.55
2022-12-31T02:57:59.794Z,1.98
2022-12-31T03:00:47.507Z,4.57
2022-12-31T03:03:14.532Z,0.63
2022-12-31T03:05:43.361Z,0.35
2022-12-31T03:08:10.313Z,1.48
2022-12-31T03:10:37.101Z,0.32
2022-12-31T03:13:04.040Z,0.30
2022-12-31T03:15:33.632Z,0.30
2022-12-31T03:18:11.867Z,1.25
2022-12-31T03:20:58.688Z,2.10
2022-12-31T03:23:30.091Z,0.30
2022-12-31T03:25:57.973Z,0.70
2022-12-31T03:28:30.574Z,0.32
2022-12-31T03:31:01.243Z,1.05
2022-12-31T03:33:33.583Z,0.30
2022-12-31T03:36:04.557Z,0.30
2022-12-31T03:38:31.368Z,0.63
2022-12-31T03:41:00.466Z,0.40
2022-12-31T03:43:27.271Z,0.73
2022-12-31T03:45:54.952Z,0.30
2022-12-31T03:48:23.051Z,0.20
2022-12-31T03:50:50.658Z,0.40
2022-12-31T03:53:17.879Z,0.65
2022-12-31T03:55:44.930Z,0.43
2022-12-31T03:58:11.732Z,0.20
2022-12-31T04:00:38.692Z,0.30
2022-12-31T04:03:05.575Z,0.43
2022-12-31T04:05:33.674Z,0.70
2022-12-31T04:08:00.502Z,1.85
2022-12-31T04:10:27.590Z,0.38
2022-12-31T04:13:00.262Z,1.02
2022-12-31T04:15:27.094Z,0.30
2022-12-31T04:17:53.917Z,0.30
2022-12-31T04:20:20.728Z,0.40
2022-12-31T04:22:47.506Z,0.55
2022-12-31T04:25:14.337Z,0.95
2022-12-31T04:27:43.693Z,2.63
2022-12-31T04:30:12.097Z,0.95
2022-12-31T04:32:39.196Z,1.00
2022-12-31T04:35:06.580Z,0.30
2022-12-31T04:37:33.407Z,0.47
2022-12-31T04:40:05.413Z,1.63
2022-12-31T04:42:33.486Z,1.35
2022-12-31T04:45:00.268Z,1.15
2022-12-31T04:47:27.509Z,1.25
2022-12-31T04:49:54.296Z,0.40
2022-12-31T04:52:22.873Z,0.40
2022-12-31T04:54:49.692Z,1.17
2022-12-31T04:57:16.465Z,1.45
2022-12-31T04:59:43.399Z,1.40
2022-12-31T05:02:10.442Z,0.55
2022-12-31T05:04:37.293Z,2.28
2022-12-31T05:07:04.119Z,0.52
2022-12-31T05:09:31.094Z,0.82
2022-12-31T05:11:58.097Z,1.50
2022-12-31T05:14:24.963Z,0.77
2022-12-31T05:16:52.146Z,0.55
2022-12-31T05:19:18.966Z,1.00
2022-12-31T05:22:05.951Z,1.30
2022-12-31T05:24:32.798Z,0.38
2022-12-31T05:26:59.574Z,0.30
2022-12-31T05:29:26.805Z,1.25
2022-12-31T05:31:53.636Z,0.60
2022-12-31T05:34:20.490Z,0.47
2022-12-31T05:36:47.264Z,1.73
2022-12-31T05:39:14.061Z,0.77
2022-12-31T05:41:40.805Z,1.05
2022-12-31T05:44:07.588Z,3.92
2022-12-31T05:46:34.341Z,2.05
2022-12-31T05:49:01.058Z,0.95
2022-12-31T05:51:27.844Z,1.88
2022-12-31T05:53:54.625Z,0.90
2022-12-31T05:56:21.361Z,1.52
2022-12-31T05:58:48.138Z,0.75
2022-12-31T06:01:14.922Z,0.93
2022-12-31T06:03:42.047Z,2.88
2022-12-31T06:06:08.945Z,2.15
2022-12-31T06:08:35.706Z,2.38
2022-12-31T06:11:02.529Z,1.50
2022-12-31T06:13:29.476Z,0.60
2022-12-31T06:15:56.578Z,0.68
2022-12-31T06:18:23.368Z,1.70
2022-12-31T06:20:50.301Z,2.55
2022-12-31T06:23:17.128Z,1.00
2022-12-31T06:25:43.944Z,0.30
2022-12-31T06:28:17.817Z,1.92
2022-12-31T06:30:47.215Z,2.97
2022-12-31T06:33:14.309Z,0.95
2022-12-31T06:35:41.095Z,1.70
2022-12-31T06:38:07.923Z,1.52
2022-12-31T06:40:37.576Z,1.30
2022-12-31T06:43:04.350Z,1.08
2022-12-31T06:45:31.103Z,1.27
2022-12-31T06:47:57.942Z,1.48
2022-12-31T06:50:24.748Z,1.48
2022-12-31T06:52:51.585Z,1.08
2022-12-31T06:55:18.687Z,1.58
2022-12-31T06:57:45.713Z,1.70
2022-12-31T07:00:13.231Z,1.48
2022-12-31T07:03:10.180Z,1.60
2022-12-31T07:05:50.884Z,4.00
2022-12-31T07:08:32.526Z,0.93
2022-12-31T07:11:20.902Z,0.82
2022-12-31T07:14:18.994Z,2.03
2022-12-31T07:17:08.557Z,0.70
2022-12-31T07:20:01.246Z,1.88
2022-12-31T07:22:28.254Z,2.65
2022-12-31T07:24:57.623Z,3.17
2022-12-31T07:27:58.278Z,1.42
2022-12-31T07:30:48.806Z,2.10
2022-12-31T07:33:25.649Z,1.63
2022-12-31T07:36:14.049Z,1.73
2022-12-31T07:38:54.655Z,2.28
2022-12-31T07:41:33.793Z,2.72
2022-12-31T07:44:29.179Z,3.05
2022-12-31T07:46:59.973Z,4.13
2022-12-31T07:49:29.284Z,5.50
2022-12-31T07:51:57.129Z,3.40
2022-12-31T07:54:23.921Z,5.72
2022-12-31T07:56:51.712Z,5.00
2022-12-31T07:59:36.982Z,2.95
2022-12-31T08:02:25.502Z,4.63
2022-12-31T08:05:33.669Z,3.88
2022-12-31T08:08:19.022Z,6.40
2022-12-31T08:10:56.726Z,5.63
2022-12-31T08:13:23.612Z,3.28
2022-12-31T08:15:50.895Z,4.15
2022-12-31T08:18:18.098Z,5.22
2022-12-31T08:21:05.832Z,2.58
2022-12-31T08:23:43.455Z,4.03
2022-12-31T08:26:30.445Z,3.83
2022-12-31T08:29:12.961Z,3.60
2022-12-31T08:32:03.650Z,6.05
2022-12-31T08:34:53.830Z,4.50
2022-12-31T08:37:38.815Z,3.95
2022-12-31T08:40:08.706Z,7.10
2022-12-31T08:42:52.805Z,2.47
2022-12-31T08:45:33.557Z,2.38
2022-12-31T08:48:18.379Z,1.83
2022-12-31T08:50:45.543Z,2.40
2022-12-31T08:53:12.628Z,3.20
2022-12-31T08:55:43.079Z,4.63
2022-12-31T08:58:29.496Z,1.95
2022-12-31T09:00:59.114Z,3.40
2022-12-31T09:03:41.767Z,2.83
2022-12-31T09:06:29.520Z,4.88
2022-12-31T09:09:13.315Z,1.65
2022-12-31T09:12:00.487Z,5.32
2022-12-31T09:15:07.705Z,3.45
2022-12-31T09:17:49.422Z,5.15
2022-12-31T09:20:42.766Z,4.90
2022-12-31T09:23:12.325Z,1.98
2022-12-31T09:26:00.620Z,2.17
2022-12-31T09:28:58.386Z,1.55
2022-12-31T09:31:52.589Z,3.38
2022-12-31T09:34:37.464Z,2.42
2022-12-31T09:37:13.799Z,6.30
2022-12-31T09:39:46.371Z,1.30
2022-12-31T09:42:39.537Z,3.17
2022-12-31T09:45:24.139Z,1.92
2022-12-31T09:48:10.508Z,2.60
2022-12-31T09:50:59.344Z,2.78
2022-12-31T09:53:53.348Z,1.27
2022-12-31T09:56:32.860Z,0.77
2022-12-31T09:59:13.693Z,2.65
2022-12-31T10:01:50.654Z,5.05
2022-12-31T10:04:46.481Z,2.80
2022-12-31T10:07:29.145Z,1.05
2022-12-31T10:10:07.968Z,2.33
2022-12-31T10:13:05.981Z,0.70
2022-12-31T10:15:35.772Z,2.22
2022-12-31T10:18:47.294Z,2.10
2022-12-31T10:21:39.424Z,4.40
2022-12-31T10:24:45.619Z,2.40
2022-12-31T10:27:37.939Z,2.08
2022-12-31T10:30:22.186Z,3.97
2022-12-31T10:33:12.743Z,3.22
2022-12-31T10:36:02.284Z,2.35
2022-12-31T10:38:50.721Z,4.13
2022-12-31T10:41:29.426Z,2.63
2022-12-31T10:44:15.063Z,2.00
2022-12-31T10:46:41.840Z,3.83
2022-12-31T10:49:20.848Z,1.30
2022-12-31T10:52:09.570Z,3.08
2022-12-31T10:55:00.819Z,2.60
2022-12-31T10:57:50.114Z,2.65
2022-12-31T11:00:21.426Z,2.08
2022-12-31T11:03:29.333Z,1.52
2022-12-31T11:06:14.488Z,2.65
2022-12-31T11:08:41.164Z,4.78
2022-12-31T11:11:31.073Z,2.22
2022-12-31T11:14:09.477Z,5.05
2022-12-31T11:17:01.299Z,3.08
2022-12-31T11:19:36.229Z,5.38
2022-12-31T11:22:27.591Z,3.72
2022-12-31T11:25:26.934Z,4.55
2022-12-31T11:28:41.604Z,4.47
2022-12-31T11:31:19.910Z,4.70
2022-12-31T11:34:10.614Z,3.92
2022-12-31T11:36:46.976Z,5.88
2022-12-31T11:39:41.210Z,6.15
2022-12-31T11:42:19.860Z,5.72
2022-12-31T11:45:12.265Z,7.82
2022-12-31T11:48:29.165Z,5.60
2022-12-31T11:51:06.703Z,5.50
2022-12-31T11:53:42.036Z,6.32
2022-12-31T11:56:20.223Z,4.35
2022-12-31T11:58:51.111Z,6.05
2022-12-31T12:01:24.657Z,3.03
2022-12-31T12:03:51.525Z,3.70
2022-12-31T12:06:24.823Z,3.17
2022-12-31T12:08:53.502Z,3.60
2022-12-31T12:11:26.527Z,3.20
2022-12-31T12:13:53.399Z,4.32
2022-12-31T12:16:22.443Z,1.85
2022-12-31T12:19:01.176Z,3.45
2022-12-31T12:21:29.796Z,3.67
2022-12-31T12:24:02.760Z,2.55
2022-12-31T12:26:47.454Z,3.70
2022-12-31T12:29:29.371Z,2.55
2022-12-31T12:32:05.083Z,1.98
2022-12-31T12:34:43.244Z,2.65
2022-12-31T12:37:33.278Z,2.38
2022-12-31T12:40:29.793Z,9.48
2022-12-31T12:43:01.313Z,4.63
2022-12-31T12:45:51.170Z,7.20
2022-12-31T12:48:42.836Z,4.60
2022-12-31T12:51:29.880Z,3.13
2022-12-31T12:54:18.003Z,1.40
2022-12-31T12:57:17.473Z,5.47
2022-12-31T12:59:52.714Z,3.83
2022-12-31T13:02:28.539Z,3.85
2022-12-31T13:05:28.524Z,4.43
2022-12-31T13:08:14.029Z,3.03
2022-12-31T13:11:15.734Z,5.65
2022-12-31T13:13:57.308Z,2.88
2022-12-31T13:16:24.080Z,4.35
2022-12-31T13:19:29.514Z,2.25
2022-12-31T13:22:05.098Z,6.13
2022-12-31T13:24:41.017Z,5.68
2022-12-31T13:27:07.757Z,3.85
2022-12-31T13:29:36.184Z,2.75
2022-12-31T13:32:05.621Z,3.30
2022-12-31T13:34:38.859Z,2.95
2022-12-31T13:37:16.717Z,6.57
2022-12-31T13:39:46.155Z,2.75
2022-12-31T13:42:28.928Z,3.22
2022-12-31T13:45:01.786Z,3.88
2022-12-31T13:47:42.033Z,3.00
2022-12-31T13:50:19.624Z,3.10
2022-12-31T13:53:11.966Z,3.28
2022-12-31T13:55:45.040Z,4.50
2022-12-31T13:58:31.861Z,4.20
2022-12-31T14:01:22.883Z,2.58
2022-12-31T14:04:13.040Z,3.58
2022-12-31T14:07:02.590Z,6.22
2022-12-31T14:09:32.910Z,3.80
2022-12-31T14:12:09.828Z,4.07
2022-12-31T14:14:54.411Z,3.75
2022-12-31T14:17:57.955Z,5.85
2022-12-31T14:20:52.489Z,4.70
2022-12-31T14:23:46.568Z,4.85
2022-12-31T14:26:29.405Z,4.45
2022-12-31T14:29:23.877Z,6.72
2022-12-31T14:31:54.136Z,5.18
2022-12-31T14:34:48.013Z,4.22
2022-12-31T14:37:36.973Z,6.25
2022-12-31T14:40:16.010Z,5.88
2022-12-31T14:43:12.284Z,5.70
2022-12-31T14:45:45.034Z,8.00
2022-12-31T14:48:32.121Z,6.18
2022-12-31T14:51:02.976Z,7.70
2022-12-31T14:53:30.500Z,6.63
2022-12-31T14:56:01.909Z,5.03
2022-12-31T14:58:37.689Z,7.78
2022-12-31T15:01:22.580Z,4.65
2022-12-31T15:03:52.597Z,8.07
2022-12-31T15:06:43.650Z,8.68
2022-12-31T15:09:46.841Z,5.25
2022-12-31T15:12:31.011Z,3.58
2022-12-31T15:15:24.141Z,3.28
2022-12-31T15:18:21.950Z,2.72
2022-12-31T15:21:10.680Z,5.35
2022-12-31T15:23:39.661Z,5.35
2022-12-31T15:26:08.579Z,3.58
2022-12-31T15:28:40.442Z,2.88
2022-12-31T15:31:20.842Z,4.20
2022-12-31T15:34:07.671Z,3.78
2022-12-31T15:36:39.406Z,2.67
2022-12-31T15:39:32.418Z,4.82
2022-12-31T15:42:36.902Z,3.28
2022-12-31T15:45:00.689Z,3.45
2022-12-31T15:47:36.411Z,2.75
2022-12-31T15:50:07.934Z,3.88
2022-12-31T15:52:42.299Z,3.53
2022-12-31T15:55:22.072Z,7.82
2022-12-31T15:57:50.323Z,6.95
2022-12-31T16:00:20.888Z,4.05
2022-12-31T16:02:51.009Z,8.80
2022-12-31T16:05:19.400Z,4.55
2022-12-31T16:07:46.596Z,4.13
2022-12-31T16:10:22.534Z,3.72
2022-12-31T16:12:49.874Z,8.32
2022-12-31T16:15:23.502Z,5.22
2022-12-31T16:18:09.560Z,4.47
2022-12-31T16:20:42.846Z,5.13
2022-12-31T16:23:23.291Z,2.40
2022-12-31T16:25:52.107Z,2.85
2022-12-31T16:28:23.384Z,3.78
2022-12-31T16:31:03.938Z,6.63
2022-12-31T16:33:32.252Z,6.65
2022-12-31T16:36:01.470Z,5.72
2022-12-31T16:38:33.916Z,3.22
2022-12-31T16:41:03.595Z,3.28
2022-12-31T16:43:40.981Z,3.55
2022-12-31T16:46:20.369Z,4.35
2022-12-31T16:48:57.086Z,4.25
2022-12-31T16:51:29.836Z,4.18
2022-12-31T16:53:57.985Z,5.18
2022-12-31T16:56:35.991Z,4.07
2022-12-31T16:59:29.293Z,6.88
2022-12-31T17:02:01.825Z,4.35
2022-12-31T17:04:40.015Z,2.67
2022-12-31T17:07:30.205Z,30.30
2022-12-31T17:10:23.884Z,51.17
2022-12-31T17:13:27.279Z,81.78
2022-12-31T17:15:47.128Z,28.05
2022-12-31T17:18:21.771Z,24.95
2022-12-31T17:20:51.461Z,9.48
2022-12-31T17:23:31.734Z,30.63
2022-12-31T17:26:08.195Z,34.92
2022-12-31T17:28:48.495Z,21.60
2022-12-31T17:31:40.410Z,28.08
2022-12-31T17:34:13.078Z,13.20
2022-12-31T17:37:24.553Z,4.95
2022-12-31T17:52:15.683Z,3.72
2022-12-31T17:58:29.706Z,5.68
2022-12-31T18:00:59.400Z,5.93
2022-12-31T18:03:28.636Z,4.60
2022-12-31T18:05:57.939Z,6.97
2022-12-31T18:08:24.726Z,7.13
2022-12-31T18:10:53.530Z,5.05
2022-12-31T18:13:27.965Z,11.13
2022-12-31T18:15:55.229Z,6.05
2022-12-31T18:18:35.801Z,11.73
2022-12-31T18:21:11.779Z,4.65
2022-12-31T18:23:42.453Z,5.40
2022-12-31T18:26:23.455Z,6.22
2022-12-31T18:28:51.185Z,5.25
2022-12-31T18:31:26.911Z,6.10
2022-12-31T18:33:56.917Z,6.15
2022-12-31T18:36:26.867Z,3.90
2022-12-31T18:38:53.605Z,3.28
2022-12-31T18:41:23.320Z,4.97
2022-12-31T18:43:50.736Z,4.60
2022-12-31T18:46:19.760Z,5.32
2022-12-31T18:48:46.560Z,7.53
2022-12-31T18:51:18.560Z,6.68
2022-12-31T18:53:45.830Z,7.55
2022-12-31T18:56:14.402Z,4.72
2022-12-31T18:58:41.614Z,5.70
2022-12-31T19:01:29.184Z,4.57
2022-12-31T19:03:58.401Z,5.57
2022-12-31T19:06:25.902Z,5.90
2022-12-31T19:08:53.043Z,5.15
2022-12-31T19:11:20.760Z,5.82
2022-12-31T19:13:47.748Z,8.13
2022-12-31T19:16:14.651Z,4.57
2022-12-31T19:18:41.866Z,8.05
2022-12-31T19:21:23.661Z,8.38
2022-12-31T19:23:51.250Z,8.02
2022-12-31T19:26:21.055Z,6.10
2022-12-31T19:28:50.116Z,6.22
2022-12-31T19:31:17.594Z,10.45
2022-12-31T19:33:44.545Z,5.32
2022-12-31T19:36:20.026Z,4.00
2022-12-31T19:38:47.093Z,5.72
2022-12-31T19:41:16.397Z,5.75
2022-12-31T19:43:43.410Z,5.38
2022-12-31T19:46:13.701Z,4.85
2022-12-31T19:48:40.701Z,4.22
2022-12-31T19:51:18.759Z,5.65
2022-12-31T19:53:47.240Z,6.40
2022-12-31T19:56:17.162Z,4.68
2022-12-31T19:58:44.223Z,7.28
2022-12-31T20:01:20.156Z,9.77
2022-12-31T20:03:47.474Z,6.50
2022-12-31T20:06:14.731Z,5.88
2022-12-31T20:08:44.649Z,8.32
2022-12-31T20:11:14.484Z,8.18
2022-12-31T20:13:42.358Z,7.55
2022-12-31T20:16:11.701Z,6.28
2022-12-31T20:18:39.666Z,9.73
2022-12-31T20:21:17.619Z,9.25
2022-12-31T20:23:44.938Z,7.40
2022-12-31T20:26:12.210Z,8.60
2022-12-31T20:28:39.136Z,5.47
2022-12-31T20:31:14.156Z,7.43
2022-12-31T20:33:41.617Z,9.32
2022-12-31T20:36:11.692Z,8.57
2022-12-31T20:38:38.534Z,7.13
2022-12-31T20:41:17.570Z,8.32
2022-12-31T20:43:45.339Z,6.53
2022-12-31T20:46:15.966Z,9.20
2022-12-31T20:48:44.463Z,13.52
2022-12-31T20:51:12.323Z,17.08
2022-12-31T20:53:39.076Z,10.60
2022-12-31T20:56:09.826Z,8.93
2022-12-31T20:58:37.176Z,9.70
2022-12-31T21:01:07.387Z,14.60
2022-12-31T21:06:30.624Z,13.55
2022-12-31T21:08:59.926Z,14.73
2022-12-31T21:11:48.232Z,8.95
2022-12-31T21:14:15.442Z,10.02
2022-12-31T21:16:42.208Z,11.00
2022-12-31T21:19:09.889Z,12.82
2022-12-31T21:21:37.014Z,12.07
2022-12-31T21:24:04.172Z,12.15
2022-12-31T21:26:30.871Z,5.78
2022-12-31T21:28:57.742Z,8.38
2022-12-31T21:31:24.550Z,13.30
2022-12-31T21:33:51.435Z,11.27
2022-12-31T21:36:18.403Z,13.30
2022-12-31T21:38:45.280Z,8.95
2022-12-31T21:41:33.589Z,11.43
2022-12-31T21:44:02.252Z,9.00
2022-12-31T21:46:29.330Z,4.05
2022-12-31T21:48:57.914Z,9.18
2022-12-31T21:51:27.142Z,8.63
2022-12-31T21:53:54.247Z,12.85
2022-12-31T21:56:21.701Z,7.72
2022-12-31T21:59:15.406Z,12.10
2022-12-31T22:02:00.848Z,5.88
2022-12-31T22:05:01.069Z,5.47
2022-12-31T22:07:15.441Z,4.65
2022-12-31T22:09:42.303Z,10.93
2022-12-31T22:12:09.028Z,5.70
2022-12-31T22:14:35.738Z,6.45
2022-12-31T22:17:02.412Z,7.18
2022-12-31T22:19:29.091Z,7.70
2022-12-31T22:21:58.130Z,10.55
2022-12-31T22:24:24.907Z,10.25
2022-12-31T22:26:53.875Z,6.38
2022-12-31T22:29:21.511Z,5.78
2022-12-31T22:31:48.260Z,10.50
2022-12-31T22:34:15.204Z,8.80
2022-12-31T22:36:41.877Z,6.68
2022-12-31T22:39:44.159Z,8.52
2022-12-31T22:42:01.860Z,8.60
2022-12-31T22:44:28.621Z,10.25
2022-12-31T22:46:59.057Z,16.10
2022-12-31T22:49:25.884Z,15.98
2022-12-31T22:51:56.901Z,15.57
2022-12-31T22:54:29.619Z,10.85
2022-12-31T22:56:59.419Z,17.42
2022-12-31T22:59:26.299Z,13.18
2022-12-31T23:01:52.998Z,28.75
2022-12-31T23:04:19.905Z,46.03
2022-12-31T23:06:46.670Z,232.98
2022-12-31T23:09:34.037Z,122.10
2022-12-31T23:12:01.939Z,74.82
2022-12-31T23:14:47.237Z,72.13
2022-12-31T23:17:38.377Z,71.40
2022-12-31T23:20:29.593Z,76.93
2022-12-31T23:23:11.818Z,66.35
2022-12-31T23:25:44.713Z,57.58
2022-12-31T23:28:18.127Z,44.78
2022-12-31T23:30:45.434Z,33.53
2022-12-31T23:33:20.551Z,27.02
2022-12-31T23:35:47.400Z,22.35
2022-12-31T23:38:16.617Z,21.27
2022-12-31T23:40:43.898Z,19.90
2022-12-31T23:43:19.681Z,19.42
2022-12-31T23:45:46.473Z,17.38
2022-12-31T23:48:13.153Z,19.50
2022-12-31T23:50:40.570Z,20.27
2022-12-31T23:53:07.315Z,24.15
2022-12-31T23:55:34.072Z,22.45
2022-12-31T23:58:00.808Z,22.58
